Time;durP1;ratioP1;P1;durP2;ratioP2;P2;SDS_P1;SDS_P2;PMS_P1;PMS_P2;Temp;Humidity;BMP_temperature;BMP_pressure;BME280_temperature;BME280_humidity;BME280_pressure;Samples;Min_cycle;Max_cycle;Signal;HPM_P1;HPM_P2
2021/10/27 00:02:13;;;;;;;64.97;33.43;;;5.40;1.00;;;;;;4436598;28;659163;-75
2021/10/27 00:05:01;;;;;;;65.67;35.03;;;5.40;1.00;;;;;;4416322;28;658077;-75
2021/10/27 00:07:49;;;;;;;66.77;34.43;;;5.40;1.00;;;;;;4438579;28;657937;-75
2021/10/27 00:10:38;;;;;;;70.73;35.63;;;5.30;1.00;;;;;;4410842;28;657673;-75
2021/10/27 00:13:26;;;;;;;66.13;35.57;;;5.30;1.00;;;;;;4414029;28;657669;-75
2021/10/27 00:16:13;;;;;;;61.22;33.17;;;5.30;1.00;;;;;;4437208;28;657634;-75
2021/10/27 00:19:01;;;;;;;66.63;33.77;;;5.20;1.00;;;;;;4423494;28;658201;-75
2021/10/27 00:21:49;;;;;;;59.97;29.80;;;5.30;1.00;;;;;;4443137;28;659479;-75
2021/10/27 00:24:36;;;;;;;63.20;30.23;;;5.30;19.20;;;;;;4425143;28;657756;-75
2021/10/27 00:27:26;;;;;;;55.00;28.03;;;5.40;1.00;;;;;;4436897;28;658798;-75
2021/10/27 00:30:13;;;;;;;53.20;28.97;;;5.40;14.90;;;;;;4419707;28;658382;-75
2021/10/27 00:33:01;;;;;;;56.23;27.83;;;5.50;1.00;;;;;;4419945;28;658627;-75
2021/10/27 00:35:48;;;;;;;55.53;26.17;;;5.50;1.00;;;;;;4440691;28;658368;-75
2021/10/27 00:38:36;;;;;;;54.30;26.63;;;5.40;1.00;;;;;;4418869;28;657596;-75
2021/10/27 00:41:23;;;;;;;51.20;24.77;;;5.40;1.00;;;;;;4440502;28;658273;-75
2021/10/27 00:44:20;;;;;;;47.57;24.53;;;5.40;1.00;;;;;;4425125;28;657667;-75
2021/10/27 00:47:09;;;;;;;55.03;26.87;;;5.50;6.80;;;;;;4400457;28;658411;-75
2021/10/27 00:49:57;;;;;;;45.60;24.10;;;5.60;10.10;;;;;;4427025;28;657573;-75
2021/10/27 00:52:44;;;;;;;52.03;23.07;;;5.70;5.70;;;;;;4447262;28;658778;-75
2021/10/27 00:55:32;;;;;;;45.73;23.63;;;5.80;1.00;;;;;;4419387;28;657918;-75
2021/10/27 00:58:20;;;;;;;44.15;22.25;;;5.90;1.00;;;;;;4447058;28;658570;-75
2021/10/27 01:01:09;;;;;;;46.70;22.73;;;5.90;1.00;;;;;;4422996;28;658428;-75
2021/10/27 01:03:56;;;;;;;39.07;22.37;;;6.10;1.00;;;;;;4424177;28;657890;-75
2021/10/27 01:06:44;;;;;;;42.73;22.40;;;6.10;1.00;;;;;;4442798;28;658362;-75
2021/10/27 01:09:31;;;;;;;48.33;22.57;;;6.10;1.00;;;;;;4419293;28;657589;-75
2021/10/27 01:12:19;;;;;;;49.50;25.23;;;6.20;1.00;;;;;;4445535;28;658307;-75
2021/10/27 01:15:08;;;;;;;45.13;23.80;;;6.30;1.00;;;;;;4423952;28;657238;-75
2021/10/27 01:17:57;;;;;;;50.23;23.07;;;6.40;1.00;;;;;;4417457;28;657547;-75
2021/10/27 01:20:46;;;;;;;46.08;23.40;;;6.50;1.00;;;;;;4450485;28;657310;-75
2021/10/27 01:23:33;;;;;;;44.38;22.60;;;6.60;1.00;;;;;;4416398;28;658622;-75
2021/10/27 01:26:21;;;;;;;50.67;25.13;;;6.70;1.00;;;;;;4423051;28;657928;-75
2021/10/27 01:29:08;;;;;;;42.33;23.10;;;6.70;1.00;;;;;;4442693;28;659195;-75
2021/10/27 01:31:56;;;;;;;48.90;22.77;;;6.80;1.00;;;;;;4427739;28;657756;-74
2021/10/27 01:34:44;;;;;;;45.43;22.00;;;6.90;1.00;;;;;;4445359;28;658619;-75
2021/10/27 01:37:32;;;;;;;41.97;21.70;;;6.90;1.00;;;;;;4421841;28;657742;-75
2021/10/27 01:40:20;;;;;;;42.23;22.03;;;7.00;1.00;;;;;;4436985;28;657637;-74
2021/10/27 01:43:08;;;;;;;36.63;18.47;;;7.00;1.00;;;;;;4433793;28;658823;-73
2021/10/27 01:45:55;;;;;;;36.37;19.33;;;7.00;1.00;;;;;;4424546;28;658096;-75
2021/10/27 01:48:43;;;;;;;37.80;20.60;;;7.00;1.00;;;;;;4443671;28;658616;-74
2021/10/27 01:51:31;;;;;;;47.17;22.47;;;7.10;1.00;;;;;;4421412;28;657693;-74
2021/10/27 01:54:20;;;;;;;41.13;21.65;;;7.10;1.00;;;;;;4437433;28;658075;-74
2021/10/27 01:57:07;;;;;;;43.17;22.23;;;7.10;1.00;;;;;;4424268;28;657785;-74
2021/10/27 01:59:55;;;;;;;41.43;21.80;;;7.10;1.00;;;;;;4442774;28;657509;-74
2021/10/27 02:02:43;;;;;;;40.30;21.47;;;7.10;1.00;;;;;;4437250;28;658989;-74
2021/10/27 02:05:30;;;;;;;42.47;21.77;;;7.10;1.00;;;;;;4418907;28;658483;-74
2021/10/27 02:08:18;;;;;;;45.03;22.47;;;7.10;1.00;;;;;;4437657;28;659775;-74
2021/10/27 02:11:07;;;;;;;45.00;23.43;;;7.20;1.00;;;;;;4422084;28;657831;-74
2021/10/27 02:13:55;;;;;;;43.23;22.07;;;7.20;1.00;;;;;;4445974;28;658384;-74
2021/10/27 02:16:43;;;;;;;42.13;22.23;;;7.20;1.00;;;;;;4418340;28;657959;-75
2021/10/27 02:19:31;;;;;;;41.80;22.50;;;7.20;1.00;;;;;;4418377;28;657830;-74
2021/10/27 02:22:19;;;;;;;42.70;22.87;;;7.10;1.00;;;;;;4441479;28;658661;-74
2021/10/27 02:25:06;;;;;;;41.80;21.67;;;7.10;1.00;;;;;;4419584;28;657531;-75
2021/10/27 02:27:56;;;;;;;42.80;22.67;;;7.20;1.00;;;;;;4438624;28;657291;-74
2021/10/27 02:30:43;;;;;;;46.90;23.07;;;7.20;1.00;;;;;;4420744;28;658721;-74
2021/10/27 02:33:31;;;;;;;41.93;21.63;;;7.10;1.00;;;;;;4417160;28;657540;-74
2021/10/27 02:36:18;;;;;;;43.83;22.17;;;7.10;1.00;;;;;;4443529;28;658081;-74
2021/10/27 02:39:07;;;;;;;35.93;20.03;;;7.10;1.00;;;;;;4420176;28;658152;-75
2021/10/27 02:41:55;;;;;;;40.40;22.27;;;7.10;1.00;;;;;;4444073;28;657663;-74
2021/10/27 02:44:44;;;;;;;40.83;21.93;;;7.00;1.00;;;;;;4443908;28;659655;-74
2021/10/27 02:47:32;;;;;;;43.33;21.80;;;7.10;1.00;;;;;;4427318;28;658228;-74
2021/10/27 02:50:21;;;;;;;39.87;21.83;;;7.00;1.00;;;;;;4437169;28;657343;-74
2021/10/27 02:53:08;;;;;;;46.47;22.93;;;7.10;1.00;;;;;;4426681;28;657713;-74
2021/10/27 02:55:56;;;;;;;43.27;23.47;;;7.10;1.00;;;;;;4425902;28;657815;-74
2021/10/27 02:58:43;;;;;;;43.07;23.60;;;7.10;1.00;;;;;;4438267;28;658330;-74
2021/10/27 03:01:33;;;;;;;41.67;24.43;;;7.10;1.00;;;;;;4423016;28;657937;-74
2021/10/27 03:04:20;;;;;;;44.35;25.58;;;7.10;1.00;;;;;;4425756;28;657915;-74
2021/10/27 03:07:08;;;;;;;46.47;25.23;;;7.10;1.00;;;;;;4449404;28;657579;-74
2021/10/27 03:09:56;;;;;;;45.22;24.90;;;7.10;1.00;;;;;;4425930;28;657975;-74
2021/10/27 03:12:43;;;;;;;45.40;23.93;;;7.10;1.00;;;;;;4442802;28;659423;-74
2021/10/27 03:15:31;;;;;;;46.47;25.83;;;7.10;1.00;;;;;;4412398;28;657700;-75
2021/10/27 03:18:20;;;;;;;42.50;24.67;;;7.00;1.00;;;;;;4432681;28;658534;-75
2021/10/27 03:21:07;;;;;;;45.70;25.40;;;7.00;1.00;;;;;;4418597;28;658865;-74
2021/10/27 03:23:57;;;;;;;53.00;26.20;;;7.10;1.00;;;;;;4440492;28;657346;-74
2021/10/27 03:26:44;;;;;;;45.47;24.87;;;7.10;1.00;;;;;;4410680;28;657421;-75
2021/10/27 03:29:32;;;;;;;50.20;25.07;;;7.20;1.00;;;;;;4419181;28;657517;-74
2021/10/27 03:32:19;;;;;;;48.57;24.63;;;7.20;1.00;;;;;;4440794;28;657742;-74
2021/10/27 03:35:09;;;;;;;51.40;24.57;;;7.20;1.00;;;;;;4426652;28;658454;-75
2021/10/27 03:37:57;;;;;;;48.03;26.00;;;7.20;1.00;;;;;;4416000;28;658369;-74
2021/10/27 03:40:45;;;;;;;46.60;24.00;;;7.20;1.00;;;;;;4440941;28;657242;-75
2021/10/27 03:43:33;;;;;;;48.57;25.23;;;7.30;1.00;;;;;;4421570;28;658586;-74
2021/10/27 03:46:20;;;;;;;41.00;21.60;;;7.30;1.00;;;;;;4429655;28;657328;-74
2021/10/27 03:49:08;;;;;;;52.27;25.87;;;7.30;1.00;;;;;;4442886;28;658151;-74
2021/10/27 03:51:58;;;;;;;53.43;25.93;;;7.30;1.00;;;;;;4424796;28;657559;-75
2021/10/27 03:54:45;;;;;;;47.47;24.73;;;7.30;1.00;;;;;;4433206;28;657676;-75
2021/10/27 03:57:33;;;;;;;45.20;24.80;;;7.30;1.00;;;;;;4443812;28;657966;-75
2021/10/27 04:00:21;;;;;;;43.43;24.20;;;7.30;1.00;;;;;;4416343;28;657315;-75
2021/10/27 04:03:08;;;;;;;45.97;23.87;;;7.30;1.00;;;;;;4447711;28;658213;-74
2021/10/27 04:05:56;;;;;;;47.23;25.60;;;7.30;1.00;;;;;;4422067;28;657495;-75
2021/10/27 04:08:45;;;;;;;49.63;25.73;;;7.30;1.00;;;;;;4440270;28;657903;-75
2021/10/27 04:11:33;;;;;;;42.53;25.60;;;7.30;1.00;;;;;;4421762;28;658009;-74
2021/10/27 04:14:21;;;;;;;45.33;25.43;;;7.30;1.00;;;;;;4419246;28;657541;-74
2021/10/27 04:17:08;;;;;;;43.67;24.70;;;7.30;1.00;;;;;;4445361;28;658285;-75
2021/10/27 04:19:57;;;;;;;41.80;25.00;;;7.30;1.00;;;;;;4427485;28;657969;-74
2021/10/27 04:22:44;;;;;;;47.03;24.27;;;7.30;1.00;;;;;;4440548;28;657823;-74
2021/10/27 04:25:34;;;;;;;39.13;23.50;;;7.30;1.00;;;;;;4425925;28;657465;-74
2021/10/27 04:28:21;;;;;;;45.33;25.00;;;7.30;1.00;;;;;;4428255;28;657928;-75
2021/10/27 04:31:09;;;;;;;41.63;23.23;;;7.30;1.00;;;;;;4447463;28;657967;-74
2021/10/27 04:33:56;;;;;;;47.17;24.57;;;7.40;1.00;;;;;;4425286;28;657472;-74
2021/10/27 04:36:49;;;;;;;39.67;23.73;;;7.40;1.00;;;;;;4450415;28;657518;-74
2021/10/27 04:39:44;;;;;;;42.87;25.50;;;7.40;1.00;;;;;;4420521;28;658412;-74
2021/10/27 04:42:35;;;;;;;42.27;24.83;;;7.40;1.00;;;;;;4390848;28;658527;-74
2021/10/27 04:45:22;;;;;;;47.53;23.27;;;7.50;1.00;;;;;;4422857;28;658861;-75
2021/10/27 04:48:13;;;;;;;45.33;20.77;;;7.50;1.00;;;;;;4437069;28;657630;-74
2021/10/27 04:51:01;;;;;;;45.10;22.60;;;7.50;1.00;;;;;;4436595;28;658241;-74
2021/10/27 04:53:48;;;;;;;43.93;21.60;;;7.50;1.00;;;;;;4451178;28;658356;-74
2021/10/27 04:56:36;;;;;;;37.30;21.23;;;7.50;1.00;;;;;;4418771;28;658203;-74
2021/10/27 04:59:27;;;;;;;35.83;20.47;;;7.40;1.00;;;;;;4446152;28;658202;-75
2021/10/27 05:02:15;;;;;;;36.67;21.07;;;7.50;1.00;;;;;;4421743;28;657478;-74
2021/10/27 05:05:03;;;;;;;41.33;20.97;;;7.50;1.00;;;;;;4420245;28;658306;-74
2021/10/27 05:07:52;;;;;;;42.50;21.33;;;7.50;1.00;;;;;;4426919;28;657336;-75
2021/10/27 05:10:46;;;;;;;40.33;21.50;;;7.50;1.00;;;;;;4445750;28;657048;-74
2021/10/27 05:13:34;;;;;;;38.97;21.83;;;7.50;1.00;;;;;;4419128;28;657723;-74
2021/10/27 05:16:27;;;;;;;40.23;20.13;;;7.50;1.00;;;;;;4413345;28;658026;-74
2021/10/27 05:19:15;;;;;;;40.33;20.88;;;7.50;1.00;;;;;;4412727;28;657582;-73
2021/10/27 05:22:02;;;;;;;39.87;21.33;;;7.50;1.00;;;;;;4423112;28;658054;-74
2021/10/27 05:24:50;;;;;;;44.60;20.03;;;7.50;1.00;;;;;;4446379;28;657361;-74
2021/10/27 05:27:37;;;;;;;40.70;20.97;;;7.50;1.00;;;;;;4420257;28;658303;-73
2021/10/27 05:30:27;;;;;;;40.33;20.97;;;7.50;1.00;;;;;;4442363;28;657487;-74
2021/10/27 05:33:16;;;;;;;37.13;19.93;;;7.50;1.00;;;;;;4439233;28;657445;-74
2021/10/27 05:36:04;;;;;;;41.23;21.17;;;7.50;1.00;;;;;;4419760;28;657659;-74
2021/10/27 05:38:52;;;;;;;42.30;21.73;;;7.50;1.00;;;;;;4419047;28;657819;-74
2021/10/27 05:41:41;;;;;;;44.27;22.53;;;7.40;1.00;;;;;;4438628;28;658567;-74
2021/10/27 05:44:29;;;;;;;45.33;22.23;;;7.30;1.00;;;;;;4407425;28;658266;-74
2021/10/27 05:47:17;;;;;;;37.53;21.00;;;7.30;1.00;;;;;;4419773;28;658836;-72
2021/10/27 05:50:22;;;;;;;40.80;21.50;;;7.30;1.00;;;;;;4437878;28;657573;-73
2021/10/27 05:56:18;;;;;;;39.83;21.03;;;7.20;1.00;;;;;;4410271;28;657264;-77
2021/10/27 05:59:06;;;;;;;38.10;21.17;;;7.20;1.00;;;;;;4423703;28;657590;-76
2021/10/27 06:01:54;;;;;;;39.60;20.60;;;7.20;1.00;;;;;;4445006;28;658313;-76
2021/10/27 06:04:41;;;;;;;38.07;21.20;;;7.20;1.00;;;;;;4420791;28;657776;-77
2021/10/27 06:07:31;;;;;;;40.40;20.00;;;7.20;1.00;;;;;;4449621;28;658592;-75
2021/10/27 06:10:22;;;;;;;43.20;21.87;;;7.20;1.00;;;;;;4424951;28;658201;-76
2021/10/27 06:13:13;;;;;;;44.47;22.23;;;7.20;1.00;;;;;;4428304;28;657607;-75
2021/10/27 06:16:01;;;;;;;45.63;22.87;;;7.20;1.00;;;;;;4390705;28;657841;-75
2021/10/27 06:18:49;;;;;;;46.97;22.17;;;7.20;1.00;;;;;;4446919;28;658420;-75
2021/10/27 06:21:38;;;;;;;35.53;20.00;;;7.20;1.00;;;;;;4415043;28;657736;-75
2021/10/27 06:24:29;;;;;;;39.13;21.20;;;7.30;1.00;;;;;;4420779;28;657626;-76
2021/10/27 06:27:16;;;;;;;47.00;22.37;;;7.30;1.00;;;;;;4426948;28;658182;-75
2021/10/27 06:30:08;;;;;;;42.37;23.67;;;7.30;1.00;;;;;;4438102;28;657761;-76
2021/10/27 06:33:03;;;;;;;45.60;24.00;;;7.40;1.00;;;;;;4394067;28;657880;-76
2021/10/27 06:35:57;;;;;;;42.33;24.00;;;7.40;1.00;;;;;;4411175;28;657618;-76
2021/10/27 06:38:59;;;;;;;44.70;23.80;;;7.40;1.00;;;;;;4412071;28;657098;-75
2021/10/27 06:47:58;;;;;;;42.00;23.50;;;7.60;1.00;;;;;;4428390;28;657657;-74
2021/10/27 06:50:46;;;;;;;46.20;23.87;;;7.70;1.00;;;;;;4425111;28;657531;-75
2021/10/27 06:53:34;;;;;;;51.03;24.80;;;7.70;1.00;;;;;;4457710;28;658178;-76
2021/10/27 06:56:23;;;;;;;47.77;24.70;;;7.80;1.00;;;;;;4419453;28;657620;-75
2021/10/27 06:59:15;;;;;;;49.83;24.93;;;7.90;1.00;;;;;;4419804;28;657216;-76
2021/10/27 07:17:47;;;;;;;45.80;24.57;;;8.10;1.00;;;;;;4334352;28;658151;-78
2021/10/27 07:20:36;;;;;;;41.67;23.57;;;8.20;1.00;;;;;;4354231;28;657634;-79
2021/10/27 07:23:24;;;;;;;41.63;21.60;;;8.20;1.00;;;;;;4362461;28;657813;-80
2021/10/27 07:26:12;;;;;;;45.43;24.83;;;8.20;99.90;;;;;;4339543;28;657661;-77
2021/10/27 07:29:02;;;;;;;46.50;24.63;;;8.30;99.90;;;;;;4357229;28;658633;-79
2021/10/27 07:31:52;;;;;;;52.93;24.87;;;8.40;99.90;;;;;;4354137;28;659086;-80
2021/10/27 07:34:42;;;;;;;48.63;26.20;;;8.40;99.90;;;;;;4360397;28;657949;-81
2021/10/27 07:40:35;;;;;;;53.00;25.30;;;8.70;99.90;;;;;;4334645;28;658584;-81
2021/10/27 07:43:26;;;;;;;48.50;25.03;;;8.70;99.90;;;;;;4335040;28;659479;-81
2021/10/27 07:46:13;;;;;;;47.90;24.60;;;8.90;99.90;;;;;;4334736;28;658978;-80
2021/10/27 07:49:02;;;;;;;50.80;26.70;;;9.00;99.90;;;;;;4329349;28;658370;-82
2021/10/27 07:51:50;;;;;;;49.87;27.60;;;9.10;99.90;;;;;;4388538;28;658567;-84
2021/10/27 07:54:38;;;;;;;52.13;27.13;;;9.30;99.90;;;;;;4401072;28;659081;-81
2021/10/27 07:57:26;;;;;;;54.30;28.30;;;9.40;99.90;;;;;;4401703;28;659361;-82
2021/10/27 08:00:16;;;;;;;50.23;26.93;;;9.60;99.90;;;;;;4429745;28;659408;-83
2021/10/27 08:03:04;;;;;;;51.33;26.10;;;9.70;99.90;;;;;;4397475;28;659366;-85
2021/10/27 08:05:56;;;;;;;47.43;27.00;;;9.90;53.90;;;;;;4403658;28;659014;-80
2021/10/27 08:08:43;;;;;;;49.60;25.27;;;10.20;1.00;;;;;;4400088;28;659355;-79
2021/10/27 08:11:31;;;;;;;53.07;27.57;;;10.20;1.00;;;;;;4404949;28;658773;-79
2021/10/27 08:14:19;;;;;;;47.40;25.13;;;10.30;1.00;;;;;;4446153;28;659144;-79
2021/10/27 08:17:06;;;;;;;45.90;21.57;;;10.50;1.00;;;;;;4414466;28;658622;-75
2021/10/27 08:19:54;;;;;;;44.83;23.67;;;10.70;99.90;;;;;;4437454;28;659969;-79
2021/10/27 08:22:45;;;;;;;46.63;23.93;;;10.70;99.90;;;;;;4408651;28;660116;-79
2021/10/27 08:25:35;;;;;;;48.93;25.07;;;10.80;99.90;;;;;;4411281;28;660050;-79
2021/10/27 08:28:30;;;;;;;42.20;21.40;;;10.80;99.90;;;;;;4423236;28;659991;-78
2021/10/27 08:31:26;;;;;;;42.47;20.90;;;10.90;99.90;;;;;;4418733;28;659730;-79
2021/10/27 08:34:21;;;;;;;41.07;21.97;;;10.70;99.90;;;;;;4403429;28;659712;-77
2021/10/27 08:37:08;;;;;;;40.77;21.23;;;10.60;99.90;;;;;;4410902;28;659984;-79
2021/10/27 08:39:57;;;;;;;42.50;22.03;;;10.80;99.90;;;;;;4413388;28;660539;-77
2021/10/27 08:42:45;;;;;;;44.83;22.50;;;10.90;1.00;;;;;;4425636;28;661387;-79
2021/10/27 08:45:33;;;;;;;41.97;22.05;;;11.20;19.70;;;;;;4412876;28;659319;-78
2021/10/27 08:48:20;;;;;;;40.10;22.83;;;11.40;1.00;;;;;;4416422;28;660079;-80
2021/10/27 08:51:10;;;;;;;47.77;24.37;;;11.60;1.00;;;;;;4438235;28;659875;-79
2021/10/27 08:53:58;;;;;;;36.40;20.30;;;11.70;1.00;;;;;;4419003;28;659282;-78
2021/10/27 08:56:49;;;;;;;36.87;20.73;;;11.90;99.90;;;;;;4408107;28;658654;-78
2021/10/27 08:59:44;;;;;;;39.53;21.70;;;11.90;1.00;;;;;;4409696;28;659776;-79
2021/10/27 09:09:09;;;;;;;39.73;20.63;;;12.70;99.90;;;;;;4351219;28;659161;-79
2021/10/27 09:15:52;;;;;;;36.00;20.13;;;12.70;1.00;;;;;;4354019;28;659754;-80
2021/10/27 09:34:47;;;;;;;34.42;17.70;;;14.50;99.90;;;;;;4355717;28;658592;-77
2021/10/27 09:37:55;;;;;;;32.13;15.67;;;14.90;1.00;;;;;;4358256;28;659381;-79
2021/10/27 09:44:16;;;;;;;29.20;15.80;;;15.10;1.00;;;;;;4357553;28;658894;-78
2021/10/27 09:47:41;;;;;;;29.77;15.20;;;15.10;99.90;;;;;;4416171;28;659304;-79
2021/10/27 09:56:54;;;;;;;28.30;14.97;;;15.10;55.00;;;;;;4417703;28;658317;-78
2021/10/27 10:05:53;;;;;;;21.67;11.40;;;15.80;1.00;;;;;;4351116;28;658790;-77
2021/10/27 10:08:42;;;;;;;24.17;13.57;;;15.90;1.00;;;;;;4351808;28;658906;-79
2021/10/27 10:11:30;;;;;;;21.83;11.33;;;16.30;99.90;;;;;;4371436;28;658317;-80
2021/10/27 10:14:19;;;;;;;23.83;12.53;;;16.30;99.90;;;;;;4350010;28;661263;-80
2021/10/27 10:17:09;;;;;;;22.07;11.97;;;16.50;99.90;;;;;;4352380;28;660378;-79
2021/10/27 10:19:56;;;;;;;20.73;11.70;;;16.30;1.00;;;;;;4354141;28;661023;-78
2021/10/27 10:22:44;;;;;;;20.00;12.47;;;15.90;1.00;;;;;;4375512;28;659222;-79
2021/10/27 10:25:33;;;;;;;21.23;12.00;;;15.90;1.00;;;;;;4351252;28;658789;-77
2021/10/27 10:28:22;;;;;;;21.13;12.27;;;15.40;1.00;;;;;;4351881;28;658496;-78
2021/10/27 10:31:11;;;;;;;28.23;12.10;;;15.20;99.90;;;;;;4364079;28;659152;-78
2021/10/27 10:34:06;;;;;;;19.77;10.67;;;15.70;99.90;;;;;;4365643;28;660030;-78
2021/10/27 10:36:53;;;;;;;19.97;10.97;;;15.80;7.60;;;;;;4349436;28;660064;-78
2021/10/27 10:39:47;;;;;;;21.77;11.87;;;15.60;1.00;;;;;;4351438;28;658456;-78
2021/10/27 10:42:51;;;;;;;21.23;10.93;;;16.00;53.40;;;;;;4368224;28;658645;-77
2021/10/27 10:45:59;;;;;;;18.47;9.73;;;16.20;2.40;;;;;;4352643;28;660121;-76
2021/10/27 11:24:48;;;;;;;14.43;7.03;;;16.40;1.00;;;;;;4392171;28;657673;-78
2021/10/27 11:40:34;;;;;;;10.37;5.80;;;16.40;1.00;;;;;;4334550;28;657762;-78
2021/10/27 11:43:31;;;;;;;12.87;6.87;;;16.80;1.00;;;;;;4310666;28;658699;-79
2021/10/27 11:46:25;;;;;;;10.17;5.20;;;16.70;99.90;;;;;;4325476;28;657861;-78
2021/10/27 11:49:14;;;;;;;7.33;4.87;;;17.10;99.90;;;;;;4329492;28;658684;-78
2021/10/27 11:52:01;;;;;;;9.57;4.70;;;17.30;99.90;;;;;;4327077;28;657638;-77
2021/10/27 11:54:56;;;;;;;6.97;4.20;;;17.50;99.90;;;;;;4360849;28;658260;-79
2021/10/27 11:57:46;;;;;;;6.87;4.23;;;17.40;99.90;;;;;;4334192;28;657707;-78
2021/10/27 12:00:36;;;;;;;8.47;4.60;;;17.20;99.90;;;;;;4332112;28;657664;-78
2021/10/27 12:03:27;;;;;;;6.47;3.43;;;17.10;99.90;;;;;;4332846;28;657960;-77
2021/10/27 12:06:33;;;;;;;9.33;3.57;;;17.30;99.90;;;;;;4331763;28;657781;-75
2021/10/27 12:09:43;;;;;;;6.23;2.80;;;17.00;99.90;;;;;;4313326;28;658389;-76
2021/10/27 12:12:44;;;;;;;6.30;2.87;;;17.30;48.80;;;;;;4313879;28;657338;-78
2021/10/27 12:16:03;;;;;;;5.32;2.83;;;17.90;1.00;;;;;;4288916;28;657772;-78
2021/10/27 12:18:55;;;;;;;7.20;3.10;;;18.30;1.00;;;;;;4367300;28;656642;-78
2021/10/27 12:21:47;;;;;;;5.67;3.07;;;18.40;1.00;;;;;;4408054;28;656770;-77
2021/10/27 12:24:37;;;;;;;4.93;2.40;;;19.10;1.00;;;;;;4400393;28;656628;-76
2021/10/27 12:27:30;;;;;;;6.30;2.70;;;18.70;1.00;;;;;;4432195;28;656501;-76
2021/10/27 12:30:18;;;;;;;5.50;3.03;;;18.80;1.00;;;;;;4393194;28;656992;-78
2021/10/27 12:33:07;;;;;;;7.87;2.80;;;19.40;1.00;;;;;;4434797;28;656759;-78
2021/10/27 12:36:13;;;;;;;5.43;2.87;;;20.20;1.00;;;;;;4436621;28;656709;-78
2021/10/27 12:39:14;;;;;;;7.20;3.60;;;20.70;1.00;;;;;;4396745;28;656299;-77
2021/10/27 12:42:03;;;;;;;6.60;3.10;;;20.20;1.00;;;;;;4424020;28;657277;-78
2021/10/27 12:44:51;;;;;;;8.83;3.60;;;20.50;1.00;;;;;;4420942;28;656709;-77
2021/10/27 12:47:40;;;;;;;12.00;3.87;;;20.40;1.00;;;;;;4440725;28;657090;-79
2021/10/27 12:50:29;;;;;;;6.93;3.60;;;20.60;1.00;;;;;;4422256;28;657786;-78
2021/10/27 12:53:17;;;;;;;7.30;3.83;;;21.00;1.00;;;;;;4422790;28;656625;-78
2021/10/27 12:56:07;;;;;;;9.60;4.10;;;20.80;1.00;;;;;;4447550;28;656696;-78
2021/10/27 12:59:01;;;;;;;8.27;3.97;;;20.70;1.00;;;;;;4418801;28;656429;-79
2021/10/27 13:01:52;;;;;;;8.07;3.83;;;20.50;1.00;;;;;;4422513;28;657025;-78
2021/10/27 13:04:47;;;;;;;10.33;4.43;;;20.20;1.00;;;;;;4410548;28;658000;-78
2021/10/27 13:07:38;;;;;;;8.97;4.23;;;19.80;1.00;;;;;;4440397;28;657596;-78
2021/10/27 13:13:48;;;;;;;8.73;4.23;;;17.70;1.00;;;;;;4391764;28;657386;-78
2021/10/27 13:23:11;;;;;;;10.90;4.63;;;16.20;1.00;;;;;;4342177;28;657054;-79
2021/10/27 13:32:09;;;;;;;8.90;4.93;;;16.70;1.00;;;;;;4351303;28;657045;-78
2021/10/27 13:34:57;;;;;;;9.13;4.53;;;17.20;1.00;;;;;;4374438;28;656911;-77
2021/10/27 13:37:44;;;;;;;9.67;5.07;;;19.00;1.00;;;;;;4387144;28;656208;-78
2021/10/27 13:40:36;;;;;;;11.43;5.33;;;20.10;1.00;;;;;;4343542;28;657001;-78
2021/10/27 13:43:26;;;;;;;11.43;5.17;;;20.00;1.00;;;;;;4347874;28;658040;-78
2021/10/27 13:46:30;;;;;;;7.53;4.97;;;20.10;1.00;;;;;;4360069;28;658310;-79
2021/10/27 13:49:29;;;;;;;11.77;6.37;;;20.30;1.00;;;;;;4337926;28;657113;-77
2021/10/27 13:58:38;;;;;;;11.70;6.27;;;20.60;1.00;;;;;;4364750;28;658278;-77
2021/10/27 14:07:40;;;;;;;12.07;6.80;;;18.70;1.00;;;;;;4392070;28;657825;-77
2021/10/27 14:10:40;;;;;;;11.87;7.23;;;18.00;1.00;;;;;;4424423;28;658663;-78
2021/10/27 14:13:42;;;;;;;13.07;6.60;;;17.40;1.00;;;;;;4409538;28;657828;-79
2021/10/27 14:16:51;;;;;;;12.73;6.93;;;16.90;1.00;;;;;;4427496;28;657469;-77
2021/10/27 14:20:18;;;;;;;13.10;6.07;;;16.80;1.00;;;;;;4419604;28;658450;-78
2021/10/27 15:22:05;;;;;;;10.77;5.90;;;12.60;1.00;;;;;;4357108;28;658909;-78
2021/10/27 15:25:10;;;;;;;16.57;6.67;;;12.30;1.00;;;;;;4361417;28;657507;-79
2021/10/27 15:28:11;;;;;;;14.03;6.47;;;12.00;1.00;;;;;;4338289;28;658577;-78
2021/10/27 15:31:16;;;;;;;13.07;6.57;;;11.80;99.90;;;;;;4364535;28;658489;-79
2021/10/27 15:34:22;;;;;;;15.73;7.40;;;11.50;15.10;;;;;;4411772;28;659309;-79
2021/10/27 15:43:39;;;;;;;19.40;9.07;;;11.00;99.90;;;;;;4399335;28;659090;-79
2021/10/27 15:52:39;;;;;;;15.67;7.87;;;10.40;1.00;;;;;;4425035;28;657657;-79
2021/10/27 15:55:27;;;;;;;21.83;8.27;;;10.20;99.90;;;;;;4408977;28;657726;-79
2021/10/27 15:58:14;;;;;;;19.33;8.60;;;10.00;1.00;;;;;;4430827;28;658455;-81
2021/10/27 16:01:02;;;;;;;20.00;8.47;;;9.90;1.00;;;;;;4410902;28;657956;-79
2021/10/27 16:03:51;;;;;;;20.03;8.40;;;9.80;1.00;;;;;;4430826;28;656901;-79
2021/10/27 16:06:42;;;;;;;26.13;9.47;;;9.70;1.00;;;;;;4412378;28;656975;-79
2021/10/27 16:09:36;;;;;;;20.07;8.70;;;9.60;1.20;;;;;;4412549;28;656580;-79
2021/10/27 16:12:24;;;;;;;19.80;8.60;;;9.40;99.90;;;;;;4412415;28;656634;-80
2021/10/27 16:15:17;;;;;;;24.20;9.37;;;9.30;99.90;;;;;;4412158;28;657708;-79
2021/10/27 16:18:04;;;;;;;28.67;10.10;;;9.20;99.90;;;;;;4420727;28;658078;-79
2021/10/27 16:20:54;;;;;;;28.13;11.83;;;9.00;99.90;;;;;;4414613;28;659846;-79
2021/10/27 16:23:42;;;;;;;31.10;12.30;;;8.90;99.90;;;;;;4424180;28;658728;-79
2021/10/27 16:26:30;;;;;;;32.60;14.97;;;8.80;99.90;;;;;;4441727;28;659228;-79
2021/10/27 16:29:17;;;;;;;42.10;16.63;;;8.80;99.90;;;;;;4423490;28;659858;-80
2021/10/27 16:32:06;;;;;;;31.93;13.03;;;8.60;1.00;;;;;;4433275;28;658974;-77
2021/10/27 16:34:54;;;;;;;27.97;13.40;;;8.60;1.00;;;;;;4444442;28;657349;-79
2021/10/27 16:37:43;;;;;;;31.73;15.03;;;8.40;1.00;;;;;;4418239;28;657474;-79
2021/10/27 16:40:31;;;;;;;42.70;18.03;;;8.40;1.00;;;;;;4424008;28;657924;-77
2021/10/27 16:43:19;;;;;;;42.60;17.20;;;8.30;1.00;;;;;;4444744;28;657735;-78
2021/10/27 16:46:06;;;;;;;46.50;18.57;;;8.20;1.00;;;;;;4421739;28;657692;-78
2021/10/27 16:48:54;;;;;;;45.53;17.97;;;8.10;1.00;;;;;;4449314;28;657997;-79
2021/10/27 16:51:42;;;;;;;39.40;17.90;;;8.00;1.00;;;;;;4425569;28;657854;-78
2021/10/27 16:54:31;;;;;;;22.63;10.98;;;8.00;1.00;;;;;;4433668;28;658648;-79
2021/10/27 16:57:19;;;;;;;26.77;10.03;;;7.90;1.00;;;;;;4414391;28;657473;-78
2021/10/27 17:00:07;;;;;;;25.57;11.60;;;7.90;1.00;;;;;;4413825;28;658434;-78
2021/10/27 17:02:55;;;;;;;31.60;14.88;;;7.90;1.00;;;;;;4439980;28;657847;-78
2021/10/27 17:05:42;;;;;;;30.57;13.87;;;7.80;1.00;;;;;;4416587;28;659120;-78
2021/10/27 17:08:31;;;;;;;26.93;13.50;;;7.70;1.00;;;;;;4435906;28;657973;-78
2021/10/27 17:11:20;;;;;;;38.30;16.13;;;7.60;1.00;;;;;;4441063;28;659187;-78
2021/10/27 17:14:07;;;;;;;43.03;18.27;;;7.50;1.00;;;;;;4415750;28;658695;-78
2021/10/27 17:16:55;;;;;;;30.77;14.97;;;7.50;1.00;;;;;;4443895;28;657134;-77
2021/10/27 17:19:42;;;;;;;30.10;13.90;;;7.50;1.00;;;;;;4424084;28;657519;-78
2021/10/27 17:22:36;;;;;;;31.10;14.40;;;7.50;1.00;;;;;;4435940;28;657642;-77
2021/10/27 17:25:24;;;;;;;33.50;14.67;;;7.40;1.00;;;;;;4418259;28;657744;-76
2021/10/27 17:28:13;;;;;;;31.90;14.33;;;7.30;1.00;;;;;;4420167;28;657632;-78
2021/10/27 17:31:01;;;;;;;32.83;14.00;;;7.30;1.00;;;;;;4419460;28;657937;-78
2021/10/27 17:33:49;;;;;;;28.97;13.60;;;7.20;1.00;;;;;;4437935;28;658613;-78
2021/10/27 17:36:37;;;;;;;28.63;12.10;;;7.20;1.00;;;;;;4417879;28;658921;-79
2021/10/27 17:39:24;;;;;;;26.33;11.67;;;7.20;1.00;;;;;;4439542;28;657116;-76
2021/10/27 17:42:16;;;;;;;26.57;11.67;;;7.20;1.00;;;;;;4421228;28;658149;-79
2021/10/27 17:45:06;;;;;;;29.27;12.60;;;7.10;1.00;;;;;;4417439;28;659027;-67
2021/10/27 17:47:59;;;;;;;27.83;13.60;;;7.00;1.00;;;;;;4413652;28;658934;-66
2021/10/27 17:51:00;;;;;;;26.23;12.07;;;7.00;1.00;;;;;;4393108;28;658298;-66
2021/10/27 18:00:00;;;;;;;32.77;15.93;;;6.90;6.40;;;;;;4397569;28;658204;-66
2021/10/27 18:02:49;;;;;;;38.23;16.20;;;6.90;15.00;;;;;;4414484;28;659076;-66
2021/10/27 18:05:37;;;;;;;42.63;17.20;;;6.90;27.00;;;;;;4415514;28;659095;-66
2021/10/27 18:08:25;;;;;;;38.90;17.97;;;6.80;30.90;;;;;;4436759;28;658661;-66
2021/10/27 18:11:15;;;;;;;42.03;21.60;;;6.80;35.00;;;;;;4412423;28;659709;-66
2021/10/27 18:14:05;;;;;;;42.42;21.70;;;6.80;51.60;;;;;;4419749;28;658945;-66
2021/10/27 18:16:58;;;;;;;51.22;24.27;;;6.80;66.60;;;;;;4420583;28;659798;-66
2021/10/27 18:19:53;;;;;;;50.50;24.17;;;6.90;90.60;;;;;;4393857;28;658839;-67